sensor_id;sensor_type;location;lat;lon;timestamp;P1;durP1;ratioP1;P2;durP2;ratioP2
47309;SDS011;33046;52.270;6.832;2023-02-15T00:02:02;28.45;;;21.55;;
47309;SDS011;33046;52.270;6.832;2023-02-15T00:04:09;25.35;;;21.75;;
47309;SDS011;33046;52.270;6.832;2023-02-15T00:06:21;27.70;;;21.25;;
47309;SDS011;33046;52.270;6.832;2023-02-15T00:08:28;23.50;;;20.95;;
47309;SDS011;33046;52.270;6.832;2023-02-15T00:10:35;23.20;;;18.75;;
47309;SDS011;33046;52.270;6.832;2023-02-15T00:12:42;24.58;;;19.63;;
47309;SDS011;33046;52.270;6.832;2023-02-15T00:14:48;23.98;;;18.90;;
47309;SDS011;33046;52.270;6.832;2023-02-15T00:16:55;26.60;;;20.85;;
47309;SDS011;33046;52.270;6.832;2023-02-15T00:19:02;21.23;;;18.25;;
47309;SDS011;33046;52.270;6.832;2023-02-15T00:21:09;20.10;;;16.90;;
47309;SDS011;33046;52.270;6.832;2023-02-15T00:23:17;20.35;;;16.23;;
47309;SDS011;33046;52.270;6.832;2023-02-15T00:25:24;22.65;;;19.00;;
47309;SDS011;33046;52.270;6.832;2023-02-15T00:27:31;25.40;;;19.33;;
47309;SDS011;33046;52.270;6.832;2023-02-15T00:29:41;22.73;;;19.48;;
47309;SDS011;33046;52.270;6.832;2023-02-15T00:31:48;24.13;;;19.83;;
47309;SDS011;33046;52.270;6.832;2023-02-15T00:33:55;26.63;;;21.73;;
47309;SDS011;33046;52.270;6.832;2023-02-15T00:36:02;26.30;;;20.55;;
47309;SDS011;33046;52.270;6.832;2023-02-15T00:38:09;24.45;;;19.80;;
47309;SDS011;33046;52.270;6.832;2023-02-15T00:40:18;22.10;;;17.35;;
47309;SDS011;33046;52.270;6.832;2023-02-15T00:42:24;22.33;;;19.35;;
47309;SDS011;33046;52.270;6.832;2023-02-15T00:44:31;23.58;;;19.80;;
47309;SDS011;33046;52.270;6.832;2023-02-15T00:46:38;24.20;;;18.58;;
47309;SDS011;33046;52.270;6.832;2023-02-15T00:48:48;21.15;;;18.42;;
47309;SDS011;33046;52.270;6.832;2023-02-15T00:50:56;23.33;;;18.17;;
47309;SDS011;33046;52.270;6.832;2023-02-15T00:53:04;21.05;;;17.45;;
47309;SDS011;33046;52.270;6.832;2023-02-15T00:55:11;23.67;;;20.20;;
47309;SDS011;33046;52.270;6.832;2023-02-15T00:57:19;23.10;;;19.60;;
47309;SDS011;33046;52.270;6.832;2023-02-15T00:59:26;20.83;;;18.60;;
47309;SDS011;33046;52.270;6.832;2023-02-15T01:01:33;19.13;;;16.25;;
47309;SDS011;33046;52.270;6.832;2023-02-15T01:03:40;21.52;;;18.08;;
47309;SDS011;33046;52.270;6.832;2023-02-15T01:05:48;20.05;;;17.02;;
47309;SDS011;33046;52.270;6.832;2023-02-15T01:07:55;20.38;;;17.58;;
47309;SDS011;33046;52.270;6.832;2023-02-15T01:10:02;23.42;;;18.15;;
47309;SDS011;33046;52.270;6.832;2023-02-15T01:12:11;25.30;;;19.73;;
47309;SDS011;33046;52.270;6.832;2023-02-15T01:14:20;21.67;;;18.33;;
47309;SDS011;33046;52.270;6.832;2023-02-15T01:16:27;21.52;;;18.52;;
47309;SDS011;33046;52.270;6.832;2023-02-15T01:18:34;25.52;;;20.45;;
47309;SDS011;33046;52.270;6.832;2023-02-15T01:20:41;25.67;;;19.38;;
47309;SDS011;33046;52.270;6.832;2023-02-15T01:22:48;21.30;;;17.90;;
47309;SDS011;33046;52.270;6.832;2023-02-15T01:24:55;23.98;;;19.27;;
47309;SDS011;33046;52.270;6.832;2023-02-15T01:27:02;25.15;;;20.05;;
47309;SDS011;33046;52.270;6.832;2023-02-15T01:29:09;24.10;;;19.25;;
47309;SDS011;33046;52.270;6.832;2023-02-15T01:31:20;24.85;;;20.30;;
47309;SDS011;33046;52.270;6.832;2023-02-15T01:33:27;26.60;;;19.10;;
47309;SDS011;33046;52.270;6.832;2023-02-15T01:35:34;27.80;;;22.20;;
47309;SDS011;33046;52.270;6.832;2023-02-15T01:37:42;25.23;;;20.83;;
47309;SDS011;33046;52.270;6.832;2023-02-15T01:39:49;22.80;;;17.85;;
47309;SDS011;33046;52.270;6.832;2023-02-15T01:41:57;19.75;;;17.65;;
47309;SDS011;33046;52.270;6.832;2023-02-15T01:46:53;21.83;;;18.20;;
47309;SDS011;33046;52.270;6.832;2023-02-15T01:49:02;28.35;;;20.10;;
47309;SDS011;33046;52.270;6.832;2023-02-15T01:51:11;28.33;;;21.08;;
47309;SDS011;33046;52.270;6.832;2023-02-15T01:53:19;25.83;;;21.48;;
47309;SDS011;33046;52.270;6.832;2023-02-15T01:55:30;25.73;;;20.77;;
47309;SDS011;33046;52.270;6.832;2023-02-15T01:57:40;25.27;;;20.73;;
47309;SDS011;33046;52.270;6.832;2023-02-15T01:59:48;25.73;;;21.55;;
47309;SDS011;33046;52.270;6.832;2023-02-15T02:02:01;25.58;;;20.27;;
47309;SDS011;33046;52.270;6.832;2023-02-15T02:04:11;26.77;;;20.85;;
47309;SDS011;33046;52.270;6.832;2023-02-15T02:06:22;23.60;;;20.73;;
47309;SDS011;33046;52.270;6.832;2023-02-15T02:08:31;26.73;;;21.48;;
47309;SDS011;33046;52.270;6.832;2023-02-15T02:10:38;26.30;;;20.25;;
47309;SDS011;33046;52.270;6.832;2023-02-15T02:12:46;24.83;;;19.85;;
47309;SDS011;33046;52.270;6.832;2023-02-15T02:14:55;26.42;;;20.77;;
47309;SDS011;33046;52.270;6.832;2023-02-15T02:17:05;22.73;;;19.33;;
47309;SDS011;33046;52.270;6.832;2023-02-15T02:19:23;24.05;;;19.55;;
47309;SDS011;33046;52.270;6.832;2023-02-15T02:22:21;27.85;;;20.80;;
47309;SDS011;33046;52.270;6.832;2023-02-15T02:24:59;21.92;;;18.67;;
47309;SDS011;33046;52.270;6.832;2023-02-15T02:27:32;26.83;;;20.27;;
47309;SDS011;33046;52.270;6.832;2023-02-15T02:35:10;25.02;;;20.35;;
47309;SDS011;33046;52.270;6.832;2023-02-15T02:37:23;25.80;;;19.30;;
47309;SDS011;33046;52.270;6.832;2023-02-15T02:39:37;24.63;;;19.50;;
47309;SDS011;33046;52.270;6.832;2023-02-15T02:41:55;21.63;;;18.92;;
47309;SDS011;33046;52.270;6.832;2023-02-15T02:44:07;21.73;;;18.17;;
47309;SDS011;33046;52.270;6.832;2023-02-15T02:46:20;22.67;;;18.42;;
47309;SDS011;33046;52.270;6.832;2023-02-15T02:48:35;21.73;;;18.38;;
47309;SDS011;33046;52.270;6.832;2023-02-15T02:50:43;21.30;;;18.20;;
47309;SDS011;33046;52.270;6.832;2023-02-15T02:52:51;24.58;;;18.83;;
47309;SDS011;33046;52.270;6.832;2023-02-15T02:54:59;23.75;;;19.13;;
47309;SDS011;33046;52.270;6.832;2023-02-15T02:57:07;23.17;;;19.65;;
47309;SDS011;33046;52.270;6.832;2023-02-15T02:59:16;21.95;;;19.13;;
47309;SDS011;33046;52.270;6.832;2023-02-15T03:01:27;26.88;;;21.13;;
47309;SDS011;33046;52.270;6.832;2023-02-15T03:03:40;26.35;;;20.92;;
47309;SDS011;33046;52.270;6.832;2023-02-15T03:05:50;25.95;;;20.38;;
47309;SDS011;33046;52.270;6.832;2023-02-15T03:08:00;26.30;;;21.42;;
47309;SDS011;33046;52.270;6.832;2023-02-15T03:10:10;29.30;;;21.63;;
47309;SDS011;33046;52.270;6.832;2023-02-15T03:12:18;25.85;;;20.92;;
47309;SDS011;33046;52.270;6.832;2023-02-15T03:14:27;26.35;;;20.75;;
47309;SDS011;33046;52.270;6.832;2023-02-15T03:16:34;25.42;;;20.10;;
47309;SDS011;33046;52.270;6.832;2023-02-15T03:18:44;25.08;;;20.80;;
47309;SDS011;33046;52.270;6.832;2023-02-15T03:20:53;24.58;;;20.40;;
47309;SDS011;33046;52.270;6.832;2023-02-15T03:23:02;28.42;;;21.40;;
47309;SDS011;33046;52.270;6.832;2023-02-15T03:25:13;25.27;;;20.52;;
47309;SDS011;33046;52.270;6.832;2023-02-15T03:27:24;23.75;;;20.13;;
47309;SDS011;33046;52.270;6.832;2023-02-15T03:29:33;25.58;;;19.60;;
47309;SDS011;33046;52.270;6.832;2023-02-15T03:31:42;23.95;;;19.85;;
47309;SDS011;33046;52.270;6.832;2023-02-15T03:33:55;30.95;;;22.17;;
47309;SDS011;33046;52.270;6.832;2023-02-15T03:36:04;28.98;;;21.30;;
47309;SDS011;33046;52.270;6.832;2023-02-15T03:40:28;26.83;;;20.52;;
47309;SDS011;33046;52.270;6.832;2023-02-15T03:42:38;28.58;;;20.25;;
47309;SDS011;33046;52.270;6.832;2023-02-15T03:44:47;30.95;;;18.95;;
47309;SDS011;33046;52.270;6.832;2023-02-15T03:47:02;24.85;;;20.38;;
47309;SDS011;33046;52.270;6.832;2023-02-15T03:49:14;26.25;;;20.52;;
47309;SDS011;33046;52.270;6.832;2023-02-15T03:51:25;26.65;;;20.60;;
47309;SDS011;33046;52.270;6.832;2023-02-15T03:53:35;24.73;;;20.48;;
47309;SDS011;33046;52.270;6.832;2023-02-15T03:55:45;29.60;;;21.38;;
47309;SDS011;33046;52.270;6.832;2023-02-15T03:57:53;25.25;;;18.92;;
47309;SDS011;33046;52.270;6.832;2023-02-15T04:00:00;24.83;;;20.60;;
47309;SDS011;33046;52.270;6.832;2023-02-15T04:02:18;26.40;;;19.77;;
47309;SDS011;33046;52.270;6.832;2023-02-15T04:06:40;27.10;;;21.40;;
47309;SDS011;33046;52.270;6.832;2023-02-15T04:08:46;21.52;;;18.33;;
47309;SDS011;33046;52.270;6.832;2023-02-15T04:10:53;27.27;;;20.45;;
47309;SDS011;33046;52.270;6.832;2023-02-15T04:13:03;28.42;;;19.67;;
47309;SDS011;33046;52.270;6.832;2023-02-15T04:15:11;25.95;;;20.08;;
47309;SDS011;33046;52.270;6.832;2023-02-15T04:17:18;24.95;;;19.65;;
47309;SDS011;33046;52.270;6.832;2023-02-15T04:19:25;29.23;;;20.38;;
47309;SDS011;33046;52.270;6.832;2023-02-15T04:21:33;24.75;;;20.05;;
47309;SDS011;33046;52.270;6.832;2023-02-15T04:23:40;27.90;;;19.85;;
47309;SDS011;33046;52.270;6.832;2023-02-15T04:25:46;27.50;;;20.02;;
47309;SDS011;33046;52.270;6.832;2023-02-15T04:27:53;29.50;;;20.27;;
47309;SDS011;33046;52.270;6.832;2023-02-15T04:30:01;28.73;;;21.33;;
47309;SDS011;33046;52.270;6.832;2023-02-15T04:32:08;25.35;;;19.63;;
47309;SDS011;33046;52.270;6.832;2023-02-15T04:34:14;30.33;;;20.50;;
47309;SDS011;33046;52.270;6.832;2023-02-15T04:36:21;25.85;;;19.42;;
47309;SDS011;33046;52.270;6.832;2023-02-15T04:38:29;24.88;;;19.35;;
47309;SDS011;33046;52.270;6.832;2023-02-15T04:40:36;26.10;;;20.23;;
47309;SDS011;33046;52.270;6.832;2023-02-15T04:42:43;24.20;;;19.10;;
47309;SDS011;33046;52.270;6.832;2023-02-15T04:44:50;29.80;;;19.83;;
47309;SDS011;33046;52.270;6.832;2023-02-15T04:46:57;25.10;;;18.30;;
47309;SDS011;33046;52.270;6.832;2023-02-15T04:49:03;24.75;;;19.10;;
47309;SDS011;33046;52.270;6.832;2023-02-15T04:51:11;27.00;;;20.45;;
47309;SDS011;33046;52.270;6.832;2023-02-15T04:53:17;21.40;;;18.05;;
47309;SDS011;33046;52.270;6.832;2023-02-15T04:55:25;23.70;;;17.67;;
47309;SDS011;33046;52.270;6.832;2023-02-15T04:57:32;21.73;;;17.02;;
47309;SDS011;33046;52.270;6.832;2023-02-15T04:59:39;23.02;;;16.92;;
47309;SDS011;33046;52.270;6.832;2023-02-15T05:01:46;23.73;;;17.92;;
47309;SDS011;33046;52.270;6.832;2023-02-15T05:03:53;23.35;;;17.27;;
47309;SDS011;33046;52.270;6.832;2023-02-15T05:05:59;26.23;;;19.25;;
47309;SDS011;33046;52.270;6.832;2023-02-15T05:08:06;23.50;;;17.95;;
47309;SDS011;33046;52.270;6.832;2023-02-15T05:10:13;24.00;;;17.77;;
47309;SDS011;33046;52.270;6.832;2023-02-15T05:12:22;21.90;;;17.67;;
47309;SDS011;33046;52.270;6.832;2023-02-15T05:14:28;22.27;;;17.38;;
47309;SDS011;33046;52.270;6.832;2023-02-15T05:16:35;26.42;;;19.08;;
47309;SDS011;33046;52.270;6.832;2023-02-15T05:18:42;24.48;;;18.00;;
47309;SDS011;33046;52.270;6.832;2023-02-15T05:20:49;26.63;;;18.98;;
47309;SDS011;33046;52.270;6.832;2023-02-15T05:22:56;24.50;;;17.98;;
47309;SDS011;33046;52.270;6.832;2023-02-15T05:25:03;26.33;;;19.40;;
47309;SDS011;33046;52.270;6.832;2023-02-15T05:27:10;26.83;;;19.40;;
47309;SDS011;33046;52.270;6.832;2023-02-15T05:29:18;22.00;;;18.13;;
47309;SDS011;33046;52.270;6.832;2023-02-15T05:31:25;24.15;;;17.58;;
47309;SDS011;33046;52.270;6.832;2023-02-15T05:33:33;26.88;;;19.13;;
47309;SDS011;33046;52.270;6.832;2023-02-15T05:35:40;22.77;;;18.38;;
47309;SDS011;33046;52.270;6.832;2023-02-15T05:37:47;27.48;;;18.10;;
47309;SDS011;33046;52.270;6.832;2023-02-15T05:39:54;24.27;;;17.92;;
47309;SDS011;33046;52.270;6.832;2023-02-15T05:42:00;27.10;;;19.17;;
47309;SDS011;33046;52.270;6.832;2023-02-15T05:44:07;27.17;;;19.10;;
47309;SDS011;33046;52.270;6.832;2023-02-15T05:46:16;25.60;;;19.20;;
47309;SDS011;33046;52.270;6.832;2023-02-15T05:48:23;22.58;;;17.73;;
47309;SDS011;33046;52.270;6.832;2023-02-15T05:50:31;23.13;;;18.88;;
47309;SDS011;33046;52.270;6.832;2023-02-15T05:52:38;23.90;;;18.70;;
47309;SDS011;33046;52.270;6.832;2023-02-15T05:54:45;24.58;;;17.83;;
47309;SDS011;33046;52.270;6.832;2023-02-15T05:56:52;23.95;;;18.00;;
47309;SDS011;33046;52.270;6.832;2023-02-15T05:58:59;27.38;;;18.40;;
47309;SDS011;33046;52.270;6.832;2023-02-15T06:01:09;21.75;;;16.67;;
47309;SDS011;33046;52.270;6.832;2023-02-15T06:03:18;21.23;;;17.13;;
47309;SDS011;33046;52.270;6.832;2023-02-15T06:05:25;21.42;;;16.10;;
47309;SDS011;33046;52.270;6.832;2023-02-15T06:07:31;21.08;;;16.45;;
47309;SDS011;33046;52.270;6.832;2023-02-15T06:09:38;20.85;;;16.75;;
47309;SDS011;33046;52.270;6.832;2023-02-15T06:11:45;21.30;;;16.50;;
47309;SDS011;33046;52.270;6.832;2023-02-15T06:13:52;23.45;;;16.90;;
47309;SDS011;33046;52.270;6.832;2023-02-15T06:15:59;22.25;;;17.33;;
47309;SDS011;33046;52.270;6.832;2023-02-15T06:18:06;21.77;;;17.42;;
47309;SDS011;33046;52.270;6.832;2023-02-15T06:20:14;20.85;;;17.35;;
47309;SDS011;33046;52.270;6.832;2023-02-15T06:22:21;18.83;;;15.75;;
47309;SDS011;33046;52.270;6.832;2023-02-15T06:24:28;20.88;;;15.98;;
47309;SDS011;33046;52.270;6.832;2023-02-15T06:26:35;24.30;;;16.30;;
47309;SDS011;33046;52.270;6.832;2023-02-15T06:28:41;23.48;;;17.45;;
47309;SDS011;33046;52.270;6.832;2023-02-15T06:30:48;25.10;;;18.77;;
47309;SDS011;33046;52.270;6.832;2023-02-15T06:32:55;21.98;;;17.60;;
47309;SDS011;33046;52.270;6.832;2023-02-15T06:35:02;22.45;;;17.35;;
47309;SDS011;33046;52.270;6.832;2023-02-15T06:37:10;22.17;;;18.85;;
47309;SDS011;33046;52.270;6.832;2023-02-15T06:39:17;20.25;;;15.38;;
47309;SDS011;33046;52.270;6.832;2023-02-15T06:41:24;21.60;;;17.08;;
47309;SDS011;33046;52.270;6.832;2023-02-15T06:43:31;21.52;;;16.38;;
47309;SDS011;33046;52.270;6.832;2023-02-15T06:45:37;24.98;;;18.70;;
47309;SDS011;33046;52.270;6.832;2023-02-15T06:47:44;25.27;;;17.23;;
47309;SDS011;33046;52.270;6.832;2023-02-15T06:49:51;24.05;;;18.33;;
47309;SDS011;33046;52.270;6.832;2023-02-15T06:51:58;24.90;;;18.38;;
47309;SDS011;33046;52.270;6.832;2023-02-15T06:54:06;22.23;;;16.55;;
47309;SDS011;33046;52.270;6.832;2023-02-15T06:56:13;28.88;;;17.90;;
47309;SDS011;33046;52.270;6.832;2023-02-15T06:58:20;27.38;;;18.58;;
47309;SDS011;33046;52.270;6.832;2023-02-15T07:00:26;26.67;;;18.55;;
47309;SDS011;33046;52.270;6.832;2023-02-15T07:02:33;33.58;;;20.17;;
47309;SDS011;33046;52.270;6.832;2023-02-15T07:04:40;26.40;;;18.05;;
47309;SDS011;33046;52.270;6.832;2023-02-15T07:06:47;24.55;;;18.58;;
47309;SDS011;33046;52.270;6.832;2023-02-15T07:08:54;25.33;;;19.02;;
47309;SDS011;33046;52.270;6.832;2023-02-15T07:11:02;26.13;;;18.88;;
47309;SDS011;33046;52.270;6.832;2023-02-15T07:13:10;24.98;;;18.33;;
47309;SDS011;33046;52.270;6.832;2023-02-15T07:15:17;25.52;;;18.92;;
47309;SDS011;33046;52.270;6.832;2023-02-15T07:17:25;25.15;;;19.05;;
47309;SDS011;33046;52.270;6.832;2023-02-15T07:19:40;29.40;;;19.10;;
47309;SDS011;33046;52.270;6.832;2023-02-15T07:21:47;22.52;;;17.05;;
47309;SDS011;33046;52.270;6.832;2023-02-15T07:23:55;23.02;;;18.23;;
47309;SDS011;33046;52.270;6.832;2023-02-15T07:26:04;29.55;;;20.85;;
47309;SDS011;33046;52.270;6.832;2023-02-15T07:28:11;26.42;;;19.52;;
47309;SDS011;33046;52.270;6.832;2023-02-15T07:30:18;25.33;;;20.27;;
47309;SDS011;33046;52.270;6.832;2023-02-15T07:32:27;30.48;;;20.20;;
47309;SDS011;33046;52.270;6.832;2023-02-15T07:34:34;28.92;;;20.40;;
47309;SDS011;33046;52.270;6.832;2023-02-15T07:36:41;27.33;;;18.85;;
47309;SDS011;33046;52.270;6.832;2023-02-15T07:38:48;28.65;;;20.52;;
47309;SDS011;33046;52.270;6.832;2023-02-15T07:40:57;30.13;;;21.05;;
47309;SDS011;33046;52.270;6.832;2023-02-15T07:43:06;30.02;;;19.63;;
47309;SDS011;33046;52.270;6.832;2023-02-15T07:45:12;27.10;;;20.67;;
47309;SDS011;33046;52.270;6.832;2023-02-15T07:47:19;29.17;;;20.90;;
47309;SDS011;33046;52.270;6.832;2023-02-15T07:49:26;31.92;;;20.38;;
47309;SDS011;33046;52.270;6.832;2023-02-15T07:51:33;28.30;;;19.10;;
47309;SDS011;33046;52.270;6.832;2023-02-15T07:53:40;30.67;;;20.42;;
47309;SDS011;33046;52.270;6.832;2023-02-15T07:55:47;27.15;;;19.50;;
47309;SDS011;33046;52.270;6.832;2023-02-15T07:57:54;27.48;;;20.55;;
47309;SDS011;33046;52.270;6.832;2023-02-15T08:00:02;29.95;;;21.70;;
47309;SDS011;33046;52.270;6.832;2023-02-15T08:02:17;30.75;;;22.17;;
47309;SDS011;33046;52.270;6.832;2023-02-15T08:04:24;30.98;;;22.33;;
47309;SDS011;33046;52.270;6.832;2023-02-15T08:06:33;33.10;;;22.08;;
47309;SDS011;33046;52.270;6.832;2023-02-15T08:08:41;29.38;;;21.90;;
47309;SDS011;33046;52.270;6.832;2023-02-15T08:10:48;33.72;;;21.88;;
47309;SDS011;33046;52.270;6.832;2023-02-15T08:12:55;27.70;;;21.60;;
47309;SDS011;33046;52.270;6.832;2023-02-15T08:15:03;32.80;;;23.33;;
47309;SDS011;33046;52.270;6.832;2023-02-15T08:17:10;31.40;;;22.95;;
47309;SDS011;33046;52.270;6.832;2023-02-15T08:19:17;31.77;;;22.50;;
47309;SDS011;33046;52.270;6.832;2023-02-15T08:21:26;32.63;;;22.45;;
47309;SDS011;33046;52.270;6.832;2023-02-15T08:23:34;31.25;;;24.75;;
47309;SDS011;33046;52.270;6.832;2023-02-15T08:25:41;32.60;;;22.77;;
47309;SDS011;33046;52.270;6.832;2023-02-15T08:27:49;35.47;;;25.00;;
47309;SDS011;33046;52.270;6.832;2023-02-15T08:29:55;29.33;;;22.08;;
47309;SDS011;33046;52.270;6.832;2023-02-15T08:32:04;39.13;;;23.90;;
47309;SDS011;33046;52.270;6.832;2023-02-15T08:34:13;38.42;;;25.60;;
47309;SDS011;33046;52.270;6.832;2023-02-15T08:36:22;35.13;;;23.95;;
47309;SDS011;33046;52.270;6.832;2023-02-15T08:38:31;30.40;;;22.58;;
47309;SDS011;33046;52.270;6.832;2023-02-15T08:40:38;34.95;;;25.92;;
47309;SDS011;33046;52.270;6.832;2023-02-15T08:42:45;34.17;;;24.85;;
47309;SDS011;33046;52.270;6.832;2023-02-15T08:44:52;38.67;;;26.80;;
47309;SDS011;33046;52.270;6.832;2023-02-15T08:46:59;34.55;;;23.67;;
47309;SDS011;33046;52.270;6.832;2023-02-15T08:49:07;40.58;;;28.38;;
47309;SDS011;33046;52.270;6.832;2023-02-15T08:51:15;42.35;;;28.35;;
47309;SDS011;33046;52.270;6.832;2023-02-15T08:53:23;41.83;;;31.98;;
47309;SDS011;33046;52.270;6.832;2023-02-15T08:55:30;39.65;;;30.02;;
47309;SDS011;33046;52.270;6.832;2023-02-15T08:57:36;42.08;;;33.28;;
47309;SDS011;33046;52.270;6.832;2023-02-15T08:59:43;41.50;;;30.23;;
47309;SDS011;33046;52.270;6.832;2023-02-15T09:01:50;37.63;;;28.00;;
47309;SDS011;33046;52.270;6.832;2023-02-15T09:03:58;39.85;;;27.88;;
47309;SDS011;33046;52.270;6.832;2023-02-15T09:06:07;39.75;;;30.42;;
47309;SDS011;33046;52.270;6.832;2023-02-15T09:08:14;38.72;;;31.42;;
47309;SDS011;33046;52.270;6.832;2023-02-15T09:10:21;43.83;;;30.40;;
47309;SDS011;33046;52.270;6.832;2023-02-15T09:12:28;36.85;;;27.90;;
47309;SDS011;33046;52.270;6.832;2023-02-15T09:14:35;45.00;;;30.23;;
47309;SDS011;33046;52.270;6.832;2023-02-15T09:16:42;37.13;;;27.52;;
47309;SDS011;33046;52.270;6.832;2023-02-15T09:18:50;38.67;;;26.42;;
47309;SDS011;33046;52.270;6.832;2023-02-15T09:20:57;39.88;;;29.50;;
47309;SDS011;33046;52.270;6.832;2023-02-15T09:23:11;39.85;;;27.95;;
47309;SDS011;33046;52.270;6.832;2023-02-15T09:25:31;43.15;;;27.23;;
47309;SDS011;33046;52.270;6.832;2023-02-15T09:27:40;40.45;;;28.65;;
47309;SDS011;33046;52.270;6.832;2023-02-15T09:29:47;44.35;;;29.30;;
47309;SDS011;33046;52.270;6.832;2023-02-15T09:31:53;40.13;;;28.67;;
47309;SDS011;33046;52.270;6.832;2023-02-15T09:34:00;42.30;;;29.80;;
47309;SDS011;33046;52.270;6.832;2023-02-15T09:36:13;37.42;;;26.55;;
47309;SDS011;33046;52.270;6.832;2023-02-15T09:38:23;40.05;;;28.95;;
47309;SDS011;33046;52.270;6.832;2023-02-15T09:40:30;42.40;;;28.35;;
47309;SDS011;33046;52.270;6.832;2023-02-15T09:45:02;40.78;;;28.85;;
47309;SDS011;33046;52.270;6.832;2023-02-15T09:47:25;36.35;;;27.17;;
47309;SDS011;33046;52.270;6.832;2023-02-15T09:49:48;39.50;;;28.45;;
47309;SDS011;33046;52.270;6.832;2023-02-15T09:52:10;39.95;;;27.95;;
47309;SDS011;33046;52.270;6.832;2023-02-15T09:54:32;39.60;;;29.17;;
47309;SDS011;33046;52.270;6.832;2023-02-15T09:56:49;45.20;;;27.98;;
47309;SDS011;33046;52.270;6.832;2023-02-15T09:59:02;41.60;;;29.83;;
47309;SDS011;33046;52.270;6.832;2023-02-15T10:01:17;50.70;;;29.70;;
47309;SDS011;33046;52.270;6.832;2023-02-15T10:03:38;40.95;;;27.88;;
47309;SDS011;33046;52.270;6.832;2023-02-15T10:05:59;39.50;;;28.58;;
47309;SDS011;33046;52.270;6.832;2023-02-15T10:08:23;43.50;;;29.30;;
47309;SDS011;33046;52.270;6.832;2023-02-15T10:10:48;37.80;;;26.88;;
47309;SDS011;33046;52.270;6.832;2023-02-15T10:13:08;46.50;;;30.70;;
47309;SDS011;33046;52.270;6.832;2023-02-15T10:15:30;35.92;;;27.25;;
47309;SDS011;33046;52.270;6.832;2023-02-15T10:17:55;39.33;;;29.85;;
47309;SDS011;33046;52.270;6.832;2023-02-15T10:20:14;43.47;;;29.67;;
47309;SDS011;33046;52.270;6.832;2023-02-15T10:22:29;37.20;;;25.75;;
47309;SDS011;33046;52.270;6.832;2023-02-15T10:24:51;44.10;;;30.85;;
47309;SDS011;33046;52.270;6.832;2023-02-15T10:27:11;44.25;;;28.05;;
47309;SDS011;33046;52.270;6.832;2023-02-15T10:29:22;41.78;;;27.33;;
47309;SDS011;33046;52.270;6.832;2023-02-15T10:31:41;40.10;;;28.58;;
47309;SDS011;33046;52.270;6.832;2023-02-15T10:33:55;43.83;;;30.17;;
47309;SDS011;33046;52.270;6.832;2023-02-15T10:38:28;39.97;;;26.77;;
47309;SDS011;33046;52.270;6.832;2023-02-15T10:40:41;39.15;;;28.15;;
47309;SDS011;33046;52.270;6.832;2023-02-15T10:43:01;40.58;;;26.88;;
47309;SDS011;33046;52.270;6.832;2023-02-15T10:45:23;40.60;;;27.75;;
47309;SDS011;33046;52.270;6.832;2023-02-15T10:47:41;42.20;;;26.27;;
47309;SDS011;33046;52.270;6.832;2023-02-15T10:50:20;43.95;;;27.90;;
47309;SDS011;33046;52.270;6.832;2023-02-15T10:52:38;41.67;;;27.13;;
47309;SDS011;33046;52.270;6.832;2023-02-15T10:54:55;40.50;;;28.67;;
47309;SDS011;33046;52.270;6.832;2023-02-15T10:57:13;38.72;;;26.33;;
47309;SDS011;33046;52.270;6.832;2023-02-15T10:59:36;42.00;;;27.00;;
47309;SDS011;33046;52.270;6.832;2023-02-15T11:02:01;41.92;;;26.33;;
47309;SDS011;33046;52.270;6.832;2023-02-15T11:04:26;41.65;;;27.90;;
47309;SDS011;33046;52.270;6.832;2023-02-15T11:06:47;38.80;;;27.05;;
47309;SDS011;33046;52.270;6.832;2023-02-15T11:09:00;37.00;;;25.63;;
47309;SDS011;33046;52.270;6.832;2023-02-15T11:11:10;46.53;;;26.83;;
47309;SDS011;33046;52.270;6.832;2023-02-15T11:13:22;38.30;;;27.33;;
47309;SDS011;33046;52.270;6.832;2023-02-15T11:15:36;40.22;;;27.38;;
47309;SDS011;33046;52.270;6.832;2023-02-15T11:17:46;36.30;;;25.65;;
47309;SDS011;33046;52.270;6.832;2023-02-15T11:19:59;39.42;;;27.05;;
47309;SDS011;33046;52.270;6.832;2023-02-15T11:22:13;37.88;;;26.60;;
47309;SDS011;33046;52.270;6.832;2023-02-15T11:24:24;36.47;;;25.60;;
47309;SDS011;33046;52.270;6.832;2023-02-15T11:26:34;37.55;;;26.13;;
47309;SDS011;33046;52.270;6.832;2023-02-15T11:28:45;38.05;;;25.75;;
47309;SDS011;33046;52.270;6.832;2023-02-15T11:30:56;38.55;;;25.67;;
47309;SDS011;33046;52.270;6.832;2023-02-15T11:33:12;37.83;;;25.77;;
47309;SDS011;33046;52.270;6.832;2023-02-15T11:35:25;36.95;;;24.77;;
47309;SDS011;33046;52.270;6.832;2023-02-15T11:37:37;35.67;;;24.65;;
47309;SDS011;33046;52.270;6.832;2023-02-15T11:39:46;36.95;;;24.85;;
47309;SDS011;33046;52.270;6.832;2023-02-15T11:41:54;35.08;;;25.05;;
47309;SDS011;33046;52.270;6.832;2023-02-15T11:44:06;39.22;;;25.50;;
47309;SDS011;33046;52.270;6.832;2023-02-15T11:46:19;37.08;;;23.90;;
47309;SDS011;33046;52.270;6.832;2023-02-15T11:48:26;37.42;;;23.42;;
47309;SDS011;33046;52.270;6.832;2023-02-15T11:50:36;37.50;;;24.50;;
47309;SDS011;33046;52.270;6.832;2023-02-15T11:52:43;34.03;;;23.40;;
47309;SDS011;33046;52.270;6.832;2023-02-15T11:54:51;41.00;;;25.00;;
47309;SDS011;33046;52.270;6.832;2023-02-15T11:56:59;34.13;;;21.52;;
47309;SDS011;33046;52.270;6.832;2023-02-15T11:59:11;36.63;;;24.00;;
47309;SDS011;33046;52.270;6.832;2023-02-15T12:01:28;34.90;;;21.67;;
47309;SDS011;33046;52.270;6.832;2023-02-15T12:03:41;36.90;;;23.60;;
47309;SDS011;33046;52.270;6.832;2023-02-15T12:05:53;32.67;;;21.80;;
47309;SDS011;33046;52.270;6.832;2023-02-15T12:08:09;36.88;;;24.75;;
47309;SDS011;33046;52.270;6.832;2023-02-15T12:10:21;34.20;;;21.77;;
47309;SDS011;33046;52.270;6.832;2023-02-15T12:12:31;33.22;;;21.20;;
47309;SDS011;33046;52.270;6.832;2023-02-15T12:14:46;31.92;;;21.55;;
47309;SDS011;33046;52.270;6.832;2023-02-15T12:16:55;35.58;;;21.50;;
47309;SDS011;33046;52.270;6.832;2023-02-15T12:19:02;35.97;;;22.13;;
47309;SDS011;33046;52.270;6.832;2023-02-15T12:21:10;31.45;;;20.65;;
47309;SDS011;33046;52.270;6.832;2023-02-15T12:23:18;37.08;;;22.77;;
47309;SDS011;33046;52.270;6.832;2023-02-15T12:25:26;30.70;;;20.40;;
47309;SDS011;33046;52.270;6.832;2023-02-15T12:27:39;35.95;;;21.33;;
47309;SDS011;33046;52.270;6.832;2023-02-15T12:29:50;33.58;;;21.92;;
47309;SDS011;33046;52.270;6.832;2023-02-15T12:32:01;34.60;;;22.35;;
47309;SDS011;33046;52.270;6.832;2023-02-15T12:34:09;31.85;;;20.50;;
47309;SDS011;33046;52.270;6.832;2023-02-15T12:36:21;36.35;;;23.48;;
47309;SDS011;33046;52.270;6.832;2023-02-15T12:38:30;32.08;;;21.48;;
47309;SDS011;33046;52.270;6.832;2023-02-15T12:40:37;33.33;;;20.98;;
47309;SDS011;33046;52.270;6.832;2023-02-15T12:42:44;32.28;;;21.42;;
47309;SDS011;33046;52.270;6.832;2023-02-15T12:44:55;33.17;;;20.23;;
47309;SDS011;33046;52.270;6.832;2023-02-15T12:49:23;31.25;;;21.00;;
47309;SDS011;33046;52.270;6.832;2023-02-15T12:51:30;32.97;;;21.52;;
47309;SDS011;33046;52.270;6.832;2023-02-15T12:53:37;33.30;;;21.55;;
47309;SDS011;33046;52.270;6.832;2023-02-15T12:55:51;28.50;;;18.27;;
47309;SDS011;33046;52.270;6.832;2023-02-15T12:58:14;31.73;;;20.52;;
47309;SDS011;33046;52.270;6.832;2023-02-15T13:00:27;35.88;;;21.50;;